Weather at Alfonso López Pumarejo Airport

Public forecast

Using degrees Celsius for public forecast. Weather courtesy of forecast.io.

Current aviation weather report (METAR) for Alfonso López Pumarejo Airport

2024/02/28 13:00 (retrieved 38 minutes ago)

SKVP 281300Z 06012KT 9999 NSC 27/19 Q1014

Closest aviation forecast (TAF) to Alfonso López Pumarejo Airport

Closest forecast is Simón Bolívar International Airport, 71.0 nm (131.5 km) NW.

2024/02/28 12:57 (retrieved 41 minutes ago)

TAF SKSM 281030Z 2812/2912 VRB05KT 9999 FEW020 BECMG 2817/2819 01014KT TX35/2820Z TN24/2910Z